sensor_id;sensor_type;location;lat;lon;timestamp;pressure;altitude;pressure_sealevel;temperature;humidity
56632;BME280;42503;39.928;-75.152;2022-09-13T00:00:21;100675.13;;;29.12;53.04
56632;BME280;42503;39.928;-75.152;2022-09-13T00:02:23;100660.63;;;29.01;53.25
56632;BME280;42503;39.928;-75.152;2022-09-13T00:04:40;100682.16;;;29.06;53.30
56632;BME280;42503;39.928;-75.152;2022-09-13T00:06:41;100670.88;;;29.06;53.26
56632;BME280;42503;39.928;-75.152;2022-09-13T00:08:46;100650.91;;;28.90;53.27
56632;BME280;42503;39.928;-75.152;2022-09-13T00:10:48;100673.19;;;29.04;53.34
56632;BME280;42503;39.928;-75.152;2022-09-13T00:12:49;100673.19;;;29.04;53.48
56632;BME280;42503;39.928;-75.152;2022-09-13T00:14:53;100682.00;;;29.02;53.38
56632;BME280;42503;39.928;-75.152;2022-09-13T00:16:57;100682.81;;;29.03;53.46
56632;BME280;42503;39.928;-75.152;2022-09-13T00:18:59;100675.56;;;29.02;53.45
56632;BME280;42503;39.928;-75.152;2022-09-13T00:21:09;100683.50;;;29.00;53.64
56632;BME280;42503;39.928;-75.152;2022-09-13T00:23:11;100686.00;;;29.01;53.69
56632;BME280;42503;39.928;-75.152;2022-09-13T00:25:13;100683.50;;;29.00;53.64
56632;BME280;42503;39.928;-75.152;2022-09-13T00:27:14;100694.91;;;29.03;53.70
56632;BME280;42503;39.928;-75.152;2022-09-13T00:29:15;100693.41;;;29.06;53.62
56632;BME280;42503;39.928;-75.152;2022-09-13T00:31:17;100700.22;;;29.05;53.65
56632;BME280;42503;39.928;-75.152;2022-09-13T00:33:19;100693.28;;;29.02;53.82
56632;BME280;42503;39.928;-75.152;2022-09-13T00:35:20;100688.00;;;28.92;53.68
56632;BME280;42503;39.928;-75.152;2022-09-13T00:37:22;100709.34;;;29.02;53.85
56632;BME280;42503;39.928;-75.152;2022-09-13T00:39:23;100721.44;;;29.02;53.97
56632;BME280;42503;39.928;-75.152;2022-09-13T00:41:24;100741.16;;;29.02;54.12
56632;BME280;42503;39.928;-75.152;2022-09-13T00:43:53;100737.16;;;29.03;54.06
56632;BME280;42503;39.928;-75.152;2022-09-13T00:45:54;100734.84;;;29.05;53.85
56632;BME280;42503;39.928;-75.152;2022-09-13T00:48:00;100744.94;;;29.06;53.94
56632;BME280;42503;39.928;-75.152;2022-09-13T00:50:37;100730.91;;;28.98;53.95
56632;BME280;42503;39.928;-75.152;2022-09-13T00:52:40;100710.72;;;28.96;54.06
56632;BME280;42503;39.928;-75.152;2022-09-13T00:54:53;100737.16;;;29.03;54.12
56632;BME280;42503;39.928;-75.152;2022-09-13T00:56:58;100727.75;;;28.99;54.18
56632;BME280;42503;39.928;-75.152;2022-09-13T00:59:11;100750.22;;;29.08;54.14
56632;BME280;42503;39.928;-75.152;2022-09-13T01:01:14;100761.03;;;29.06;54.35
56632;BME280;42503;39.928;-75.152;2022-09-13T01:03:19;100767.97;;;29.08;54.65
56632;BME280;42503;39.928;-75.152;2022-09-13T01:05:29;100760.06;;;29.02;54.61
56632;BME280;42503;39.928;-75.152;2022-09-13T01:07:33;100774.63;;;29.04;54.39
56632;BME280;42503;39.928;-75.152;2022-09-13T01:09:37;100776.28;;;29.05;54.47
56632;BME280;42503;39.928;-75.152;2022-09-13T01:11:56;100776.28;;;29.05;54.26
56632;BME280;42503;39.928;-75.152;2022-09-13T01:14:06;100783.22;;;29.07;54.31
56632;BME280;42503;39.928;-75.152;2022-09-13T01:16:07;100781.22;;;29.08;54.64
56632;BME280;42503;39.928;-75.152;2022-09-13T01:18:09;100769.97;;;29.08;54.22
56632;BME280;42503;39.928;-75.152;2022-09-13T01:20:12;100763.16;;;29.09;54.36
56632;BME280;42503;39.928;-75.152;2022-09-13T01:32:02;100751.41;;;29.07;54.63
56632;BME280;42503;39.928;-75.152;2022-09-13T01:39:18;100726.25;;;29.02;54.45
56632;BME280;42503;39.928;-75.152;2022-09-13T01:41:39;100739.78;;;29.08;54.62
56632;BME280;42503;39.928;-75.152;2022-09-13T01:43:49;100734.50;;;29.07;54.63
56632;BME280;42503;39.928;-75.152;2022-09-13T01:46:21;100735.69;;;29.06;54.55
56632;BME280;42503;39.928;-75.152;2022-09-13T01:48:39;100742.59;;;29.08;54.30
56632;BME280;42503;39.928;-75.152;2022-09-13T02:00:08;100724.06;;;29.07;54.50
56632;BME280;42503;39.928;-75.152;2022-09-13T02:04:59;100724.19;;;29.11;54.41
56632;BME280;42503;39.928;-75.152;2022-09-13T02:07:07;100718.91;;;29.09;54.50
56632;BME280;42503;39.928;-75.152;2022-09-13T02:09:14;100717.38;;;29.12;54.37
56632;BME280;42503;39.928;-75.152;2022-09-13T02:11:17;100713.59;;;29.08;54.35
56632;BME280;42503;39.928;-75.152;2022-09-13T02:13:26;100723.53;;;29.14;54.52
56632;BME280;42503;39.928;-75.152;2022-09-13T02:15:52;100726.19;;;29.10;54.62
56632;BME280;42503;39.928;-75.152;2022-09-13T02:18:23;100727.50;;;29.13;55.04
56632;BME280;42503;39.928;-75.152;2022-09-13T02:20:36;100729.97;;;29.15;54.45
56632;BME280;42503;39.928;-75.152;2022-09-13T02:22:51;100736.44;;;29.15;54.15
56632;BME280;42503;39.928;-75.152;2022-09-13T02:24:57;100717.94;;;29.05;54.04
56632;BME280;42503;39.928;-75.152;2022-09-13T02:27:08;100723.69;;;29.09;54.30
56632;BME280;42503;39.928;-75.152;2022-09-13T02:29:13;100728.50;;;29.08;54.51
56632;BME280;42503;39.928;-75.152;2022-09-13T02:31:22;100729.34;;;29.09;54.35
56632;BME280;42503;39.928;-75.152;2022-09-13T02:33:56;100732.34;;;29.04;54.51
56632;BME280;42503;39.928;-75.152;2022-09-13T02:36:04;100738.50;;;29.06;54.31
56632;BME280;42503;39.928;-75.152;2022-09-13T02:38:17;100737.78;;;29.09;54.35
56632;BME280;42503;39.928;-75.152;2022-09-13T02:40:25;100741.09;;;29.11;54.23
56632;BME280;42503;39.928;-75.152;2022-09-13T02:42:43;100731.69;;;29.07;54.23
56632;BME280;42503;39.928;-75.152;2022-09-13T02:44:51;100710.56;;;28.92;54.17
56632;BME280;42503;39.928;-75.152;2022-09-13T02:47:09;100733.69;;;29.06;54.83
56632;BME280;42503;39.928;-75.152;2022-09-13T02:49:56;100732.03;;;29.05;54.77
56632;BME280;42503;39.928;-75.152;2022-09-13T02:54:51;100719.94;;;29.05;54.17
56632;BME280;42503;39.928;-75.152;2022-09-13T02:57:08;100711.19;;;28.98;54.35
56632;BME280;42503;39.928;-75.152;2022-09-13T02:59:19;100703.22;;;29.00;54.04
56632;BME280;42503;39.928;-75.152;2022-09-13T03:01:22;100729.28;;;29.18;54.20
56632;BME280;42503;39.928;-75.152;2022-09-13T03:03:23;100724.16;;;29.20;53.94
56632;BME280;42503;39.928;-75.152;2022-09-13T03:05:25;100736.22;;;29.20;53.79
56632;BME280;42503;39.928;-75.152;2022-09-13T03:07:27;100735.06;;;29.21;54.03
56632;BME280;42503;39.928;-75.152;2022-09-13T03:09:29;100747.16;;;29.22;54.03
56632;BME280;42503;39.928;-75.152;2022-09-13T03:12:00;100736.59;;;29.19;54.35
56632;BME280;42503;39.928;-75.152;2022-09-13T03:14:17;100736.59;;;29.19;54.26
56632;BME280;42503;39.928;-75.152;2022-09-13T03:21:45;100686.94;;;29.26;53.93
56632;BME280;42503;39.928;-75.152;2022-09-13T03:29:16;100713.94;;;29.27;54.16
56632;BME280;42503;39.928;-75.152;2022-09-13T03:31:24;100728.75;;;29.24;53.97
56632;BME280;42503;39.928;-75.152;2022-09-13T03:35:56;100722.16;;;29.20;54.07
56632;BME280;42503;39.928;-75.152;2022-09-13T03:38:11;100730.41;;;29.25;54.11
56632;BME280;42503;39.928;-75.152;2022-09-13T03:40:40;100721.66;;;29.18;54.14
56632;BME280;42503;39.928;-75.152;2022-09-13T03:42:45;100721.94;;;29.25;54.28
56632;BME280;42503;39.928;-75.152;2022-09-13T03:44:49;100730.41;;;29.25;54.07
56632;BME280;42503;39.928;-75.152;2022-09-13T03:46:55;100731.72;;;29.28;54.34
56632;BME280;42503;39.928;-75.152;2022-09-13T03:49:04;100735.81;;;29.30;54.01
56632;BME280;42503;39.928;-75.152;2022-09-13T03:51:07;100743.59;;;29.33;53.90
56632;BME280;42503;39.928;-75.152;2022-09-13T03:53:11;100739.59;;;29.34;53.46
56632;BME280;42503;39.928;-75.152;2022-09-13T03:55:17;100721.31;;;29.20;53.36
56632;BME280;42503;39.928;-75.152;2022-09-13T03:57:23;100750.19;;;29.37;53.44
56632;BME280;42503;39.928;-75.152;2022-09-13T03:59:27;100749.38;;;29.37;53.36
56632;BME280;42503;39.928;-75.152;2022-09-13T04:01:31;100754.31;;;29.40;53.42
56632;BME280;42503;39.928;-75.152;2022-09-13T04:03:33;100743.84;;;29.41;53.29
56632;BME280;42503;39.928;-75.152;2022-09-13T04:05:34;100739.91;;;29.42;53.55
56632;BME280;42503;39.928;-75.152;2022-09-13T04:07:38;100730.94;;;29.40;53.62
56632;BME280;42503;39.928;-75.152;2022-09-13T04:09:39;100713.22;;;29.39;53.30
56632;BME280;42503;39.928;-75.152;2022-09-13T04:11:41;100724.63;;;29.43;53.54
56632;BME280;42503;39.928;-75.152;2022-09-13T04:13:42;100715.34;;;29.42;53.15
56632;BME280;42503;39.928;-75.152;2022-09-13T04:15:43;100710.03;;;29.41;53.42
56632;BME280;42503;39.928;-75.152;2022-09-13T04:17:45;100703.94;;;29.38;53.56
56632;BME280;42503;39.928;-75.152;2022-09-13T04:19:46;100712.16;;;29.44;53.24
56632;BME280;42503;39.928;-75.152;2022-09-13T04:21:51;100711.34;;;29.43;53.53
56632;BME280;42503;39.928;-75.152;2022-09-13T04:23:53;100695.34;;;29.35;53.51
56632;BME280;42503;39.928;-75.152;2022-09-13T04:25:59;100714.16;;;29.43;53.46
56632;BME280;42503;39.928;-75.152;2022-09-13T04:28:04;100715.00;;;29.44;53.56
56632;BME280;42503;39.928;-75.152;2022-09-13T04:30:07;100709.34;;;29.44;53.33
56632;BME280;42503;39.928;-75.152;2022-09-13T04:32:08;100717.44;;;29.45;53.52
56632;BME280;42503;39.928;-75.152;2022-09-13T04:34:10;100706.19;;;29.45;53.52
56632;BME280;42503;39.928;-75.152;2022-09-13T04:36:12;100707.00;;;29.46;53.63
56632;BME280;42503;39.928;-75.152;2022-09-13T04:38:14;100703.03;;;29.47;53.70
56632;BME280;42503;39.928;-75.152;2022-09-13T04:40:15;100690.09;;;29.46;53.50
56632;BME280;42503;39.928;-75.152;2022-09-13T04:42:16;100698.06;;;29.44;53.66
56632;BME280;42503;39.928;-75.152;2022-09-13T04:44:22;100678.34;;;29.44;53.82
56632;BME280;42503;39.928;-75.152;2022-09-13T04:46:24;100673.16;;;29.46;53.44
56632;BME280;42503;39.928;-75.152;2022-09-13T04:48:28;100660.00;;;29.37;53.42
56632;BME280;42503;39.928;-75.152;2022-09-13T04:50:29;100673.16;;;29.46;53.47
56632;BME280;42503;39.928;-75.152;2022-09-13T04:52:31;100660.25;;;29.45;53.48
56632;BME280;42503;39.928;-75.152;2022-09-13T04:54:32;100663.56;;;29.47;53.46
56632;BME280;42503;39.928;-75.152;2022-09-13T04:56:33;100657.94;;;29.47;53.40
56632;BME280;42503;39.928;-75.152;2022-09-13T04:58:35;100659.06;;;29.46;53.55
56632;BME280;42503;39.928;-75.152;2022-09-13T05:00:36;100665.22;;;29.48;53.28
56632;BME280;42503;39.928;-75.152;2022-09-13T05:02:37;100668.72;;;29.45;53.57
56632;BME280;42503;39.928;-75.152;2022-09-13T05:04:38;100658.75;;;29.47;53.31
56632;BME280;42503;39.928;-75.152;2022-09-13T05:06:40;100659.56;;;29.48;53.49
56632;BME280;42503;39.928;-75.152;2022-09-13T05:08:41;100647.47;;;29.47;53.15
56632;BME280;42503;39.928;-75.152;2022-09-13T05:10:42;100647.47;;;29.47;53.45
56632;BME280;42503;39.928;-75.152;2022-09-13T05:12:43;100643.19;;;29.41;53.15
56632;BME280;42503;39.928;-75.152;2022-09-13T05:14:44;100637.84;;;29.48;53.54
56632;BME280;42503;39.928;-75.152;2022-09-13T05:16:48;100631.38;;;29.48;53.45
56632;BME280;42503;39.928;-75.152;2022-09-13T05:18:50;100613.47;;;29.31;53.35
56632;BME280;42503;39.928;-75.152;2022-09-13T05:20:55;100640.31;;;29.50;53.21
56632;BME280;42503;39.928;-75.152;2022-09-13T05:22:59;100642.31;;;29.49;53.26
56632;BME280;42503;39.928;-75.152;2022-09-13T05:25:00;100634.56;;;29.46;53.25
56632;BME280;42503;39.928;-75.152;2022-09-13T05:27:02;100649.59;;;29.50;52.94
56632;BME280;42503;39.928;-75.152;2022-09-13T05:29:04;100642.66;;;29.48;53.33
56632;BME280;42503;39.928;-75.152;2022-09-13T05:31:06;100651.56;;;29.50;53.40
56632;BME280;42503;39.928;-75.152;2022-09-13T05:33:07;100656.06;;;29.51;52.97
56632;BME280;42503;39.928;-75.152;2022-09-13T05:35:12;100655.56;;;29.49;53.23
56632;BME280;42503;39.928;-75.152;2022-09-13T05:37:19;100664.53;;;29.51;53.20
56632;BME280;42503;39.928;-75.152;2022-09-13T05:39:20;100665.22;;;29.48;53.23
56632;BME280;42503;39.928;-75.152;2022-09-13T05:41:23;100659.56;;;29.48;53.04
56632;BME280;42503;39.928;-75.152;2022-09-13T05:43:26;100658.88;;;29.51;53.19
56632;BME280;42503;39.928;-75.152;2022-09-13T05:45:27;100659.72;;;29.51;53.13
56632;BME280;42503;39.928;-75.152;2022-09-13T05:47:29;100644.31;;;29.49;53.35
56632;BME280;42503;39.928;-75.152;2022-09-13T05:49:30;100649.59;;;29.50;53.32
56632;BME280;42503;39.928;-75.152;2022-09-13T05:51:32;100648.44;;;29.51;53.18
56632;BME280;42503;39.928;-75.152;2022-09-13T05:53:34;100641.97;;;29.51;53.08
56632;BME280;42503;39.928;-75.152;2022-09-13T05:55:35;100639.97;;;29.51;53.30
56632;BME280;42503;39.928;-75.152;2022-09-13T05:57:37;100643.63;;;29.52;53.38
56632;BME280;42503;39.928;-75.152;2022-09-13T05:59:38;100628.69;;;29.51;53.38
56632;BME280;42503;39.928;-75.152;2022-09-13T06:01:46;100613.50;;;29.44;53.34
56632;BME280;42503;39.928;-75.152;2022-09-13T06:03:49;100628.34;;;29.53;53.50
56632;BME280;42503;39.928;-75.152;2022-09-13T06:05:55;100624.69;;;29.52;53.40
56632;BME280;42503;39.928;-75.152;2022-09-13T06:07:57;100627.16;;;29.54;53.31
56632;BME280;42503;39.928;-75.152;2022-09-13T06:09:58;100526.47;;;28.97;53.25
56632;BME280;42503;39.928;-75.152;2022-09-13T06:12:02;100619.41;;;29.51;53.13
56632;BME280;42503;39.928;-75.152;2022-09-13T06:14:04;100613.78;;;29.51;53.09
56632;BME280;42503;39.928;-75.152;2022-09-13T06:16:07;100619.41;;;29.51;52.98
56632;BME280;42503;39.928;-75.152;2022-09-13T06:18:09;100619.41;;;29.51;53.25
56632;BME280;42503;39.928;-75.152;2022-09-13T06:20:10;100619.06;;;29.52;53.12
56632;BME280;42503;39.928;-75.152;2022-09-13T06:22:11;100607.19;;;29.47;52.95
56632;BME280;42503;39.928;-75.152;2022-09-13T06:24:13;100616.25;;;29.52;52.99
56632;BME280;42503;39.928;-75.152;2022-09-13T06:26:16;100613.78;;;29.51;52.94
56632;BME280;42503;39.928;-75.152;2022-09-13T06:28:18;100594.97;;;29.43;53.24
56632;BME280;42503;39.928;-75.152;2022-09-13T06:30:19;100605.31;;;29.51;53.06
56632;BME280;42503;39.928;-75.152;2022-09-13T06:32:23;100610.47;;;29.49;53.24
56632;BME280;42503;39.928;-75.152;2022-09-13T06:34:25;100610.47;;;29.49;53.01
56632;BME280;42503;39.928;-75.152;2022-09-13T06:36:27;100601.13;;;29.57;52.89
56632;BME280;42503;39.928;-75.152;2022-09-13T06:38:29;100600.31;;;29.56;52.93
56632;BME280;42503;39.928;-75.152;2022-09-13T06:40:30;100609.94;;;29.55;53.16
56632;BME280;42503;39.928;-75.152;2022-09-13T06:42:36;100601.78;;;29.54;52.89
56632;BME280;42503;39.928;-75.152;2022-09-13T06:44:40;100602.59;;;29.54;53.41
56632;BME280;42503;39.928;-75.152;2022-09-13T06:46:42;100596.97;;;29.54;53.23
56632;BME280;42503;39.928;-75.152;2022-09-13T06:48:44;100598.97;;;29.54;53.21
56632;BME280;42503;39.928;-75.152;2022-09-13T06:50:45;100596.97;;;29.54;53.46
56632;BME280;42503;39.928;-75.152;2022-09-13T06:52:49;100603.47;;;29.55;53.43
56632;BME280;42503;39.928;-75.152;2022-09-13T06:54:50;100600.16;;;29.53;53.61
56632;BME280;42503;39.928;-75.152;2022-09-13T06:56:54;100584.63;;;29.47;53.53
56632;BME280;42503;39.928;-75.152;2022-09-13T06:58:57;100593.03;;;29.55;53.59
56632;BME280;42503;39.928;-75.152;2022-09-13T07:01:23;100588.41;;;29.51;53.58
56632;BME280;42503;39.928;-75.152;2022-09-13T07:03:26;100561.00;;;29.39;53.37
56632;BME280;42503;39.928;-75.152;2022-09-13T07:05:27;100583.72;;;29.55;53.72
56632;BME280;42503;39.928;-75.152;2022-09-13T07:07:29;100559.50;;;29.42;53.59
56632;BME280;42503;39.928;-75.152;2022-09-13T07:09:31;100576.94;;;29.56;53.60
56632;BME280;42503;39.928;-75.152;2022-09-13T07:11:36;100579.75;;;29.56;53.39
56632;BME280;42503;39.928;-75.152;2022-09-13T07:13:38;100576.94;;;29.56;53.53
56632;BME280;42503;39.928;-75.152;2022-09-13T07:15:42;100574.13;;;29.56;53.33
56632;BME280;42503;39.928;-75.152;2022-09-13T07:17:43;100574.13;;;29.56;53.63
56632;BME280;42503;39.928;-75.152;2022-09-13T07:19:45;100582.88;;;29.54;53.58
56632;BME280;42503;39.928;-75.152;2022-09-13T07:21:46;100586.53;;;29.55;53.61
56632;BME280;42503;39.928;-75.152;2022-09-13T07:23:50;100582.56;;;29.56;53.63
56632;BME280;42503;39.928;-75.152;2022-09-13T07:25:55;100582.88;;;29.54;53.32
56632;BME280;42503;39.928;-75.152;2022-09-13T07:28:07;100578.09;;;29.55;53.53
56632;BME280;42503;39.928;-75.152;2022-09-13T07:30:08;100570.47;;;29.55;53.37
56632;BME280;42503;39.928;-75.152;2022-09-13T07:32:10;100566.81;;;29.55;53.52
56632;BME280;42503;39.928;-75.152;2022-09-13T07:34:13;100566.81;;;29.55;53.57
56632;BME280;42503;39.928;-75.152;2022-09-13T07:36:17;100580.56;;;29.56;53.53
56632;BME280;42503;39.928;-75.152;2022-09-13T07:38:19;100571.31;;;29.56;53.55
56632;BME280;42503;39.928;-75.152;2022-09-13T07:40:20;100570.47;;;29.55;53.39
56632;BME280;42503;39.928;-75.152;2022-09-13T07:42:21;100558.34;;;29.55;53.41
56632;BME280;42503;39.928;-75.152;2022-09-13T07:44:22;100560.69;;;29.53;53.47
56632;BME280;42503;39.928;-75.152;2022-09-13T07:46:28;100557.50;;;29.54;53.44
56632;BME280;42503;39.928;-75.152;2022-09-13T07:48:35;100560.03;;;29.56;53.55
56632;BME280;42503;39.928;-75.152;2022-09-13T07:50:37;100555.53;;;29.55;53.38
56632;BME280;42503;39.928;-75.152;2022-09-13T07:52:38;100552.72;;;29.55;53.39
56632;BME280;42503;39.928;-75.152;2022-09-13T07:54:40;100572.94;;;29.57;53.53
56632;BME280;42503;39.928;-75.152;2022-09-13T07:56:42;100565.66;;;29.56;53.37
56632;BME280;42503;39.928;-75.152;2022-09-13T07:58:45;100559.19;;;29.55;53.68
56632;BME280;42503;39.928;-75.152;2022-09-13T08:00:49;100543.50;;;29.46;53.45
56632;BME280;42503;39.928;-75.152;2022-09-13T08:02:50;100565.66;;;29.56;53.44
56632;BME280;42503;39.928;-75.152;2022-09-13T08:04:52;100570.78;;;29.54;53.47
56632;BME280;42503;39.928;-75.152;2022-09-13T08:06:53;100564.84;;;29.55;53.21
56632;BME280;42503;39.928;-75.152;2022-09-13T08:08:54;100576.13;;;29.55;53.30
56632;BME280;42503;39.928;-75.152;2022-09-13T08:10:56;100569.63;;;29.55;53.19
56632;BME280;42503;39.928;-75.152;2022-09-13T08:13:01;100564.00;;;29.55;53.39
56632;BME280;42503;39.928;-75.152;2022-09-13T08:15:02;100557.50;;;29.54;53.24
56632;BME280;42503;39.928;-75.152;2022-09-13T08:17:04;100557.50;;;29.54;53.45
56632;BME280;42503;39.928;-75.152;2022-09-13T08:19:08;100552.19;;;29.41;53.19
56632;BME280;42503;39.928;-75.152;2022-09-13T08:21:10;100569.63;;;29.55;53.34
56632;BME280;42503;39.928;-75.152;2022-09-13T08:23:12;100551.63;;;29.47;53.49
56632;BME280;42503;39.928;-75.152;2022-09-13T08:25:14;100564.00;;;29.55;53.36
56632;BME280;42503;39.928;-75.152;2022-09-13T08:27:15;100568.78;;;29.54;53.37
56632;BME280;42503;39.928;-75.152;2022-09-13T08:29:19;100564.00;;;29.55;53.40
56632;BME280;42503;39.928;-75.152;2022-09-13T08:31:21;100567.13;;;29.53;53.17
56632;BME280;42503;39.928;-75.152;2022-09-13T08:33:23;100568.69;;;29.51;53.15
56632;BME280;42503;39.928;-75.152;2022-09-13T08:35:24;100579.22;;;29.54;53.37
56632;BME280;42503;39.928;-75.152;2022-09-13T08:37:30;100567.47;;;29.40;53.42
56632;BME280;42503;39.928;-75.152;2022-09-13T08:39:31;100580.91;;;29.55;53.20
56632;BME280;42503;39.928;-75.152;2022-09-13T08:41:49;100583.22;;;29.53;53.45
56632;BME280;42503;39.928;-75.152;2022-09-13T08:44:02;100577.59;;;29.53;53.17
56632;BME280;42503;39.928;-75.152;2022-09-13T08:48:18;100589.38;;;29.55;53.12
56632;BME280;42503;39.928;-75.152;2022-09-13T08:50:30;100590.50;;;29.54;53.11
56632;BME280;42503;39.928;-75.152;2022-09-13T08:52:48;100565.94;;;29.42;53.14
56632;BME280;42503;39.928;-75.152;2022-09-13T08:54:56;100576.13;;;29.55;53.33
56632;BME280;42503;39.928;-75.152;2022-09-13T08:57:08;100587.41;;;29.55;53.15
56632;BME280;42503;39.928;-75.152;2022-09-13T08:59:59;100585.59;;;29.51;53.22
56632;BME280;42503;39.928;-75.152;2022-09-13T09:02:11;100588.22;;;29.56;53.18
56632;BME280;42503;39.928;-75.152;2022-09-13T09:06:30;100590.22;;;29.55;52.97
56632;BME280;42503;39.928;-75.152;2022-09-13T09:08:58;100590.38;;;29.50;53.02
56632;BME280;42503;39.928;-75.152;2022-09-13T09:11:06;100589.38;;;29.55;53.00
56632;BME280;42503;39.928;-75.152;2022-09-13T09:13:36;100585.59;;;29.51;52.95
56632;BME280;42503;39.928;-75.152;2022-09-13T09:15:47;100582.06;;;29.54;53.05
56632;BME280;42503;39.928;-75.152;2022-09-13T09:17:57;100584.88;;;29.54;52.99
56632;BME280;42503;39.928;-75.152;2022-09-13T09:20:35;100565.13;;;29.42;53.15
56632;BME280;42503;39.928;-75.152;2022-09-13T09:22:38;100578.09;;;29.55;52.91
56632;BME280;42503;39.928;-75.152;2022-09-13T09:24:39;100582.06;;;29.54;53.10
56632;BME280;42503;39.928;-75.152;2022-09-13T09:26:45;100571.97;;;29.53;52.98
56632;BME280;42503;39.928;-75.152;2022-09-13T09:29:00;100574.31;;;29.51;53.16
56632;BME280;42503;39.928;-75.152;2022-09-13T09:33:38;100568.31;;;29.52;52.99
56632;BME280;42503;39.928;-75.152;2022-09-13T09:36:06;100561.38;;;29.50;52.91
56632;BME280;42503;39.928;-75.152;2022-09-13T09:38:35;100548.44;;;29.49;53.10
56632;BME280;42503;39.928;-75.152;2022-09-13T09:40:37;100546.59;;;29.53;52.90
56632;BME280;42503;39.928;-75.152;2022-09-13T09:42:48;100552.44;;;29.48;52.95
56632;BME280;42503;39.928;-75.152;2022-09-13T09:44:56;100559.03;;;29.52;53.08
56632;BME280;42503;39.928;-75.152;2022-09-13T09:47:13;100571.00;;;29.49;52.84
56632;BME280;42503;39.928;-75.152;2022-09-13T09:49:20;100584.88;;;29.54;52.84
56632;BME280;42503;39.928;-75.152;2022-09-13T09:51:47;100589.56;;;29.50;53.00
56632;BME280;42503;39.928;-75.152;2022-09-13T09:53:59;100588.22;;;29.56;52.94
56632;BME280;42503;39.928;-75.152;2022-09-13T09:56:25;100584.56;;;29.55;53.01
56632;BME280;42503;39.928;-75.152;2022-09-13T09:58:38;100596.16;;;29.54;52.85
56632;BME280;42503;39.928;-75.152;2022-09-13T10:00:57;100582.41;;;29.52;52.90
56632;BME280;42503;39.928;-75.152;2022-09-13T10:03:02;100583.22;;;29.53;53.06
56632;BME280;42503;39.928;-75.152;2022-09-13T10:05:05;100573.13;;;29.52;53.08
56632;BME280;42503;39.928;-75.152;2022-09-13T10:07:25;100564.53;;;29.48;53.06
56632;BME280;42503;39.928;-75.152;2022-09-13T10:09:28;100555.72;;;29.50;52.79
56632;BME280;42503;39.928;-75.152;2022-09-13T10:14:00;100554.78;;;29.46;53.16
56632;BME280;42503;39.928;-75.152;2022-09-13T10:16:04;100560.09;;;29.47;53.15
56632;BME280;42503;39.928;-75.152;2022-09-13T10:18:20;100572.19;;;29.48;52.94
56632;BME280;42503;39.928;-75.152;2022-09-13T10:20:21;100565.38;;;29.49;53.00
56632;BME280;42503;39.928;-75.152;2022-09-13T10:22:28;100565.38;;;29.49;53.09
56632;BME280;42503;39.928;-75.152;2022-09-13T10:24:30;100567.38;;;29.48;53.18
56632;BME280;42503;39.928;-75.152;2022-09-13T10:26:33;100576.66;;;29.49;53.10
56632;BME280;42503;39.928;-75.152;2022-09-13T10:29:05;100581.31;;;29.45;53.04
56632;BME280;42503;39.928;-75.152;2022-09-13T10:31:12;100561.59;;;29.32;52.99
56632;BME280;42503;39.928;-75.152;2022-09-13T10:33:26;100591.91;;;29.48;53.14
56632;BME280;42503;39.928;-75.152;2022-09-13T10:35:28;100596.38;;;29.49;52.80
56632;BME280;42503;39.928;-75.152;2022-09-13T10:37:30;100596.38;;;29.49;53.10
56632;BME280;42503;39.928;-75.152;2022-09-13T10:39:35;100597.56;;;29.48;52.81
56632;BME280;42503;39.928;-75.152;2022-09-13T10:41:40;100606.38;;;29.46;52.96
56632;BME280;42503;39.928;-75.152;2022-09-13T10:43:42;100610.34;;;29.45;53.00
56632;BME280;42503;39.928;-75.152;2022-09-13T10:45:48;100616.78;;;29.46;53.01
56632;BME280;42503;39.928;-75.152;2022-09-13T10:47:52;100593.72;;;29.31;53.15
56632;BME280;42503;39.928;-75.152;2022-09-13T10:49:57;100629.75;;;29.47;53.03
56632;BME280;42503;39.928;-75.152;2022-09-13T10:52:02;100609.97;;;29.34;52.89
56632;BME280;42503;39.928;-75.152;2022-09-13T10:54:22;100607.00;;;29.31;52.83
56632;BME280;42503;39.928;-75.152;2022-09-13T10:56:27;100621.28;;;29.47;52.90
56632;BME280;42503;39.928;-75.152;2022-09-13T10:58:28;100615.66;;;29.47;53.12
56632;BME280;42503;39.928;-75.152;2022-09-13T11:03:33;100631.75;;;29.46;52.79
56632;BME280;42503;39.928;-75.152;2022-09-13T11:08:10;100642.66;;;29.48;53.05
56632;BME280;42503;39.928;-75.152;2022-09-13T11:10:43;100646.66;;;29.47;53.01
56632;BME280;42503;39.928;-75.152;2022-09-13T11:13:01;100656.41;;;29.49;52.60
56632;BME280;42503;39.928;-75.152;2022-09-13T11:19:55;100648.28;;;29.48;53.02
56632;BME280;42503;39.928;-75.152;2022-09-13T11:27:01;100657.66;;;29.40;52.88
56632;BME280;42503;39.928;-75.152;2022-09-13T11:31:42;100667.06;;;29.44;52.96
56632;BME280;42503;39.928;-75.152;2022-09-13T11:36:43;100662.13;;;29.41;53.91
56632;BME280;42503;39.928;-75.152;2022-09-13T11:43:31;100652.59;;;29.33;54.55
56632;BME280;42503;39.928;-75.152;2022-09-13T11:48:22;100650.09;;;29.31;54.58
56632;BME280;42503;39.928;-75.152;2022-09-13T11:50:48;100655.63;;;29.28;54.85
56632;BME280;42503;39.928;-75.152;2022-09-13T11:55:44;100663.13;;;29.24;54.81
56632;BME280;42503;39.928;-75.152;2022-09-13T11:58:01;100662.63;;;29.22;54.66
56632;BME280;42503;39.928;-75.152;2022-09-13T12:00:13;100649.31;;;29.10;54.47
56632;BME280;42503;39.928;-75.152;2022-09-13T12:06:59;100681.06;;;29.19;54.66
56632;BME280;42503;39.928;-75.152;2022-09-13T12:09:16;100673.75;;;29.18;54.82
56632;BME280;42503;39.928;-75.152;2022-09-13T12:11:35;100683.72;;;29.16;54.79
56632;BME280;42503;39.928;-75.152;2022-09-13T12:13:48;100678.09;;;29.16;54.60